Willamette — WDG2204 — position and weather

sailwx.info

Track history (hours):
 
Tides and Currents Weather Stations Pressure Air Temp Water Temp Dewpoint Dewpoint Depression Visibility Wind Speed Wind Dir Waves Ship Positions

Willamette

Owner: Shaver Transportation Company, Portland, OR. More information available from US FCC via Universal Licensing System and Coast Guard Vessel Documentation Center.

Last reported at 2018-Jun-19 12:00 UTC. Time now 2018-Jun-19 12:21 UTC.
Position N 45°38' W 122°44'.

Length 28 m; draft 4.3 m.

Type: Tug. MMSI: 367513230.

Date/timePositionNaut miles runAvg speedWind from/ knotsBaromVisibWave heightAir tempDewpointWater temp
2018-Jun-19 12:00N 45°38' W 122°44'0 0.0
2018-Jun-19 11:28N 45°38' W 122°44'0 0.0
2018-Jun-19 11:00N 45°38' W 122°44'0 0.0
2018-Jun-19 10:29N 45°38' W 122°44'0 0.0
2018-Jun-19 10:00N 45°38' W 122°44'0 0.0
2018-Jun-19 09:30N 45°38' W 122°44'0 0.0
2018-Jun-19 09:00N 45°38' W 122°44'0 0.0
2018-Jun-19 08:30N 45°38' W 122°44'0 0.0
2018-Jun-19 08:00N 45°38' W 122°44'0 0.1
2018-Jun-19 07:30N 45°38' W 122°44'1 2.3
2018-Jun-19 07:00N 45°39' W 122°45'1 1.9
2018-Jun-19 06:30N 45°38' W 122°46'2 3.4
2018-Jun-19 06:00N 45°37' W 122°47'0 0.2
2018-Jun-19 05:30N 45°37' W 122°47'3 5.4
2018-Jun-19 05:00N 45°39' W 122°44'1 2.1
2018-Jun-19 04:30N 45°38' W 122°43'1 2.7
2018-Jun-19 04:00N 45°39' W 122°45'1 1.4
2018-Jun-19 03:30N 45°39' W 122°45'0 0.5
2018-Jun-19 03:01N 45°39' W 122°46'1 1.7
2018-Jun-19 02:30N 45°39' W 122°46'1 1.6
2018-Jun-19 02:00N 45°39' W 122°45'0 0.2
2018-Jun-19 01:30N 45°39' W 122°45'0 0.0
2018-Jun-19 01:00N 45°39' W 122°45'0 0.1
2018-Jun-19 00:30N 45°39' W 122°46'0 0.0
2018-Jun-19 00:00N 45°39' W 122°46'0 0.0
2018-Jun-18 23:30N 45°39' W 122°46'0 0.0
2018-Jun-18 23:00N 45°39' W 122°46'0 0.0
2018-Jun-18 22:30N 45°39' W 122°46'0 0.0
2018-Jun-18 22:00N 45°39' W 122°46'3 6.1
2018-Jun-18 21:30N 45°42' W 122°46'4 7.3
2018-Jun-18 21:00N 45°46' W 122°46'4 7.2
2018-Jun-18 20:30N 45°49' W 122°48'3 6.9
2018-Jun-18 20:00N 45°52' W 122°47'3 6.7
2018-Jun-18 19:30N 45°56' W 122°48'3 6.7
2018-Jun-18 19:00N 45°59' W 122°50'1 1.3
2018-Jun-18 18:30N 45°59' W 122°51'3 5.0
2018-Jun-18 18:00N 46°02' W 122°52'2 3.0
2018-Jun-18 17:21N 46°04' W 122°53'2 6.5
2018-Jun-18 17:00N 46°05' W 122°55'0 0.8
2018-Jun-18 16:30N 46°05' W 122°56'4 8.9
2018-Jun-18 16:01N 46°02' W 122°52'0 0.4
2018-Jun-18 15:30N 46°02' W 122°52'0 0.1
2018-Jun-18 15:00N 46°02' W 122°52'0 0.0
2018-Jun-18 14:30N 46°02' W 122°52'3 6.5
2018-Jun-18 14:00N 46°05' W 122°54'2 4.5
2018-Jun-18 13:30N 46°06' W 122°57'1 1.1
2018-Jun-18 13:00N 46°06' W 122°57'1 1.7
2018-Jun-18 12:30N 46°07' W 122°58'1 1.0
2018-Jun-18 12:00N 46°06' W 122°58'0 0.1
2018-Jun-18 11:30N 46°06' W 122°58'0 0.1
2018-Jun-18 11:00N 46°06' W 122°58'0 0.1
2018-Jun-18 10:30N 46°06' W 122°58'510.0
2018-Jun-18 10:00N 46°03' W 122°53'0 0.3
2018-Jun-18 09:29N 46°03' W 122°53'0 0.0
2018-Jun-18 09:00N 46°03' W 122°53'1 2.2
2018-Jun-18 08:30N 46°04' W 122°53'2 3.3
2018-Jun-18 08:00N 46°05' W 122°54'1 1.3
2018-Jun-18 07:30N 46°05' W 122°55'1 1.6
2018-Jun-18 06:59N 46°06' W 122°56'0 0.3
2018-Jun-18 06:30N 46°06' W 122°56'1 1.6
2018-Jun-18 06:00N 46°06' W 122°58'1 1.5
2018-Jun-18 05:30N 46°06' W 122°56'0 0.1
2018-Jun-18 05:00N 46°06' W 122°56'0 0.0
2018-Jun-18 04:30N 46°06' W 122°56'0 0.0
2018-Jun-18 04:00N 46°06' W 122°56'4 7.2
2018-Jun-18 03:30N 46°03' W 122°53'5 9.2
2018-Jun-18 03:00N 45°59' W 122°50'0 0.3
2018-Jun-18 02:06N 45°59' W 122°50'0 0.0
2018-Jun-18 02:00N 45°59' W 122°50'0 0.0
2018-Jun-18 01:30N 45°59' W 122°50'0 0.0
2018-Jun-18 01:00N 45°59' W 122°50'0 0.1
2018-Jun-18 00:30N 45°59' W 122°50'0 0.3
2018-Jun-18 00:00N 45°59' W 122°50'0 0.1
2018-Jun-17 23:30N 45°59' W 122°50'0 0.1
2018-Jun-17 22:47N 45°59' W 122°50'0 0.0
2018-Jun-17 22:30N 45°59' W 122°50'0 0.0
2018-Jun-17 22:00N 45°59' W 122°50'1 2.0
2018-Jun-17 21:18N 45°58' W 122°49'411.5
2018-Jun-17 20:57N 45°54' W 122°48'610.4
2018-Jun-17 20:23N 45°48' W 122°47'410.6
2018-Jun-17 20:00N 45°44' W 122°46'510.1
2018-Jun-17 19:30N 45°39' W 122°45'1 2.5
2018-Jun-17 19:00N 45°38' W 122°44'0 0.0
2018-Jun-17 18:30N 45°38' W 122°44'0 0.0
2018-Jun-17 18:00N 45°38' W 122°44'0 0.0
2018-Jun-17 17:30N 45°38' W 122°44'0 0.0
2018-Jun-17 17:00N 45°38' W 122°44'0 0.0
2018-Jun-17 16:29N 45°38' W 122°44'0 0.0
2018-Jun-17 15:56N 45°38' W 122°44'0 0.0
2018-Jun-17 15:31N 45°38' W 122°44'0 0.0
2018-Jun-17 15:01N 45°38' W 122°44'0 0.8
2018-Jun-17 14:30N 45°38' W 122°44'1 1.6
2018-Jun-17 14:00N 45°39' W 122°45'1 2.3
2018-Jun-17 13:30N 45°38' W 122°47'0 0.1
2018-Jun-17 13:00N 45°38' W 122°47'1 1.5
2018-Jun-17 12:30N 45°39' W 122°46'0 0.3
2018-Jun-17 12:00N 45°39' W 122°46'1 1.3
2018-Jun-17 11:30N 45°38' W 122°47'2 4.7
2018-Jun-17 11:00N 45°36' W 122°47'3 6.2
2018-Jun-17 10:30N 45°34' W 122°44'0 0.0
2018-Jun-17 10:00N 45°34' W 122°44'0 0.0
2018-Jun-17 09:30N 45°34' W 122°44'0 0.0
2018-Jun-17 09:00N 45°34' W 122°44'0 0.2
2018-Jun-17 08:30N 45°34' W 122°44'0 0.1
2018-Jun-17 08:00N 45°34' W 122°44'0 0.0
2018-Jun-17 07:31N 45°34' W 122°44'0 0.0
2018-Jun-17 07:00N 45°34' W 122°44'3 5.7
2018-Jun-17 06:30N 45°36' W 122°47'4 7.3
2018-Jun-17 06:00N 45°39' W 122°46'1 1.9
2018-Jun-17 05:30N 45°39' W 122°45'0 0.0
2018-Jun-17 05:01N 45°39' W 122°45'0 0.0
2018-Jun-17 04:30N 45°39' W 122°45'0 0.0
2018-Jun-17 04:00N 45°39' W 122°45'1 1.7
2018-Jun-17 03:30N 45°38' W 122°44'0 0.1
2018-Jun-17 03:00N 45°38' W 122°44'0 0.1
2018-Jun-17 02:30N 45°38' W 122°44'0 0.0
2018-Jun-17 02:00N 45°38' W 122°44'0 0.1
2018-Jun-17 01:28N 45°38' W 122°44'1 1.3
2018-Jun-17 00:59N 45°39' W 122°44'3 5.3
2018-Jun-17 00:30N 45°37' W 122°47'1 2.9
2018-Jun-17 00:00N 45°36' W 122°47'3 5.5
2018-Jun-16 23:30N 45°39' W 122°47'1 2.4
2018-Jun-16 23:00N 45°39' W 122°45'0 0.0
2018-Jun-16 22:31N 45°39' W 122°45'0 0.0
2018-Jun-16 22:00N 45°39' W 122°45'0 0.0
2018-Jun-16 21:30N 45°39' W 122°45'0 0.0
2018-Jun-16 21:00N 45°39' W 122°45'0 0.0
2018-Jun-16 20:31N 45°39' W 122°45'0 0.0
2018-Jun-16 20:00N 45°39' W 122°45'0 0.0
2018-Jun-16 19:31N 45°39' W 122°45'0 0.0
2018-Jun-16 19:00N 45°39' W 122°45'3 6.2
2018-Jun-16 18:30N 45°41' W 122°46'3 6.9
2018-Jun-16 18:00N 45°45' W 122°46'3 6.8
2018-Jun-16 17:30N 45°48' W 122°47'3 6.5
2018-Jun-16 17:00N 45°51' W 122°47'3 6.5
2018-Jun-16 16:30N 45°55' W 122°48'3 6.5
2018-Jun-16 16:00N 45°58' W 122°49'3 5.1
2018-Jun-16 15:30N 45°60' W 122°51'4 7.2
2018-Jun-16 15:00N 46°03' W 122°53'3 7.0
2018-Jun-16 14:30N 46°06' W 122°56'0 0.1
2018-Jun-16 14:00N 46°06' W 122°56'3 5.1
2018-Jun-16 13:30N 46°04' W 122°53'5 9.4
2018-Jun-16 13:00N 45°60' W 122°51'0 0.3
2018-Jun-16 12:30N 45°60' W 122°51'0 0.1
2018-Jun-16 12:00N 45°60' W 122°51'2 4.7
2018-Jun-16 11:30N 46°02' W 122°53'4 8.2
2018-Jun-16 11:00N 46°06' W 122°56'4 8.8
2018-Jun-16 10:31N 46°08' W 123°01'4 8.7
2018-Jun-16 10:00N 46°11' W 123°06'4 8.1
2018-Jun-16 09:30N 46°11' W 123°12'4 8.6
2018-Jun-16 09:01N 46°09' W 123°18'4 8.5
2018-Jun-16 08:30N 46°09' W 123°24'4 7.9
2018-Jun-16 08:00N 46°13' W 123°25'4 8.2
2018-Jun-16 07:30N 46°16' W 123°29'5 8.8
2018-Jun-16 06:59N 46°15' W 123°35'4 8.6
2018-Jun-16 06:30N 46°15' W 123°41'5 9.2
2018-Jun-16 06:00N 46°13' W 123°47'4 8.5
2018-Jun-16 05:30N 46°11' W 123°53'2 5.0
2018-Jun-16 05:00N 46°12' W 123°56'3 6.2
2018-Jun-16 04:28N 46°12' W 123°51'3 5.1
2018-Jun-16 03:54N 46°13' W 123°48'1 1.5
2018-Jun-16 03:31N 46°13' W 123°47'1 1.0
2018-Jun-16 03:01N 46°12' W 123°47'1 2.2
2018-Jun-16 02:31N 46°13' W 123°46'6 9.6
2018-Jun-16 01:53N 46°16' W 123°38'4 9.6
2018-Jun-16 01:30N 46°16' W 123°33'4 8.0
2018-Jun-16 01:01N 46°15' W 123°27'4 8.3
2018-Jun-16 00:31N 46°11' W 123°26'4 8.0
2018-Jun-16 00:00N 46°09' W 123°21'4 8.1
2018-Jun-15 23:30N 46°09' W 123°16'4 8.5
2018-Jun-15 23:00N 46°11' W 123°10'4 8.7
2018-Jun-15 22:30N 46°10' W 123°05'5 9.9
2018-Jun-15 22:00N 46°07' W 122°59'5 9.9
2018-Jun-15 21:30N 46°04' W 122°53'510.0
2018-Jun-15 21:00N 45°59' W 122°51'5 9.6
2018-Jun-15 20:30N 45°55' W 122°49'5 9.6
2018-Jun-15 20:00N 45°50' W 122°48'5 9.4
2018-Jun-15 19:30N 45°45' W 122°46'5 9.7
2018-Jun-15 19:01N 45°40' W 122°46'4 7.0
2018-Jun-15 18:30N 45°37' W 122°47'3 7.0
2018-Jun-15 18:00N 45°34' W 122°44'1 2.5
2018-Jun-15 17:31N 45°33' W 122°43'0 0.0
2018-Jun-15 17:00N 45°33' W 122°43'1 1.1
2018-Jun-15 16:31N 45°34' W 122°44'0 0.0
2018-Jun-15 16:01N 45°34' W 122°44'0 0.0
2018-Jun-15 15:30N 45°34' W 122°44'0 0.0
2018-Jun-15 15:00N 45°34' W 122°44'0 0.0
2018-Jun-15 14:30N 45°34' W 122°44'0 0.0
2018-Jun-15 14:00N 45°34' W 122°44'0 0.0
2018-Jun-15 13:31N 45°34' W 122°44'0 0.0
2018-Jun-15 13:00N 45°34' W 122°44'3 6.1
2018-Jun-15 12:30N 45°36' W 122°47'3 4.7
2018-Jun-15 11:49N 45°39' W 122°45'1 4.4
2018-Jun-15 11:30N 45°38' W 122°43'0 0.3
2018-Jun-15 11:00N 45°38' W 122°43'1 2.7
2018-Jun-15 10:30N 45°39' W 122°45'0 0.0
2018-Jun-15 10:01N 45°39' W 122°45'0 0.0
2018-Jun-15 09:30N 45°39' W 122°45'2 3.6
2018-Jun-15 09:00N 45°38' W 122°42'0 0.3
2018-Jun-15 08:30N 45°38' W 122°42'2 3.2
2018-Jun-15 08:00N 45°39' W 122°45'0 0.2
2018-Jun-15 07:19N 45°39' W 122°45'1 3.1
2018-Jun-15 06:59N 45°39' W 122°46'0 0.8
2018-Jun-15 06:30N 45°38' W 122°46'0 0.0
2018-Jun-15 06:00N 45°38' W 122°46'0 0.0
2018-Jun-15 05:30N 45°38' W 122°46'0 0.1
2018-Jun-15 05:00N 45°38' W 122°46'1 1.8
2018-Jun-15 04:30N 45°39' W 122°45'2 4.9
2018-Jun-15 04:01N 45°37' W 122°47'3 6.3
2018-Jun-15 03:30N 45°34' W 122°44'1 1.6
2018-Jun-15 03:00N 45°34' W 122°44'0 0.0
2018-Jun-15 02:31N 45°34' W 122°44'0 0.0
2018-Jun-15 02:00N 45°34' W 122°44'0 0.0
2018-Jun-15 01:31N 45°34' W 122°44'0 0.0
2018-Jun-15 01:01N 45°34' W 122°44'2 4.0
2018-Jun-15 00:30N 45°33' W 122°41'1 1.5
2018-Jun-15 00:00N 45°32' W 122°40'1 2.1
2018-Jun-14 23:30N 45°33' W 122°42'1 2.4
2018-Jun-14 23:00N 45°33' W 122°43'1 1.3
2018-Jun-14 22:30N 45°34' W 122°44'0 0.0
2018-Jun-14 22:00N 45°34' W 122°44'0 0.0
2018-Jun-14 21:30N 45°34' W 122°44'0 0.1
2018-Jun-14 21:00N 45°34' W 122°44'0 0.3
2018-Jun-14 20:31N 45°34' W 122°44'0 0.0
2018-Jun-14 20:00N 45°34' W 122°44'0 0.8
2018-Jun-14 19:30N 45°34' W 122°44'2 3.8
2018-Jun-14 19:00N 45°35' W 122°45'3 7.0
2018-Jun-14 18:30N 45°38' W 122°47'2 4.5
2018-Jun-14 17:59N 45°38' W 122°44'3 5.4
2018-Jun-14 17:30N 45°38' W 122°47'4 8.3
2018-Jun-14 17:00N 45°34' W 122°44'1 1.5
2018-Jun-14 16:30N 45°34' W 122°44'0 0.0
2018-Jun-14 16:00N 45°34' W 122°44'0 0.0
2018-Jun-14 15:30N 45°34' W 122°44'0 0.0
2018-Jun-14 15:00N 45°34' W 122°44'0 0.0
2018-Jun-14 14:31N 45°34' W 122°44'0 0.0
2018-Jun-14 14:01N 45°34' W 122°44'2 4.4
2018-Jun-14 13:30N 45°35' W 122°46'3 6.2
2018-Jun-14 13:00N 45°38' W 122°47'1 2.6
2018-Jun-14 12:30N 45°39' W 122°45'2 3.2
2018-Jun-14 12:01N 45°38' W 122°43'0 0.1
2018-Jun-14 11:30N 45°38' W 122°43'1 2.2
2018-Jun-14 11:00N 45°39' W 122°45'0 0.5
2018-Jun-14 10:31N 45°39' W 122°45'4 7.8
2018-Jun-14 10:00N 45°42' W 122°46'4 8.0
2018-Jun-14 09:30N 45°46' W 122°46'4 7.7
2018-Jun-14 09:00N 45°50' W 122°47'4 7.4
2018-Jun-14 08:30N 45°54' W 122°48'4 7.5
2018-Jun-14 08:00N 45°58' W 122°49'4 7.6
2018-Jun-14 07:30N 46°01' W 122°52'2 3.8
2018-Jun-14 06:59N 46°03' W 122°53'0 0.0
2018-Jun-14 06:30N 46°03' W 122°53'0 0.2
2018-Jun-14 06:00N 46°03' W 122°53'0 0.1
2018-Jun-14 05:22N 46°03' W 122°53'0 1.4
2018-Jun-14 05:00N 46°02' W 122°53'1 1.6
2018-Jun-14 04:30N 46°02' W 122°52'0 0.0
2018-Jun-14 04:00N 46°02' W 122°52'6 8.5
2018-Jun-14 03:19N 45°56' W 122°48'310.5
2018-Jun-14 03:00N 45°53' W 122°48'510.1
2018-Jun-14 02:30N 45°48' W 122°47'510.0
2018-Jun-14 02:00N 45°43' W 122°46'5 9.3
2018-Jun-14 01:30N 45°39' W 122°45'2 3.7
2018-Jun-14 01:00N 45°38' W 122°47'4 7.9
2018-Jun-14 00:31N 45°34' W 122°44'1 1.9
2018-Jun-14 00:00N 45°34' W 122°43'0 0.3
2018-Jun-13 23:30N 45°34' W 122°44'0 0.2
2018-Jun-13 23:00N 45°34' W 122°44'0 0.0
2018-Jun-13 22:31N 45°34' W 122°44'0 0.0
2018-Jun-13 22:01N 45°34' W 122°44'0 0.0
2018-Jun-13 21:31N 45°34' W 122°44'0 0.0
2018-Jun-13 21:01N 45°34' W 122°44'0 0.0
2018-Jun-13 20:30N 45°34' W 122°44'0 0.0
2018-Jun-13 20:01N 45°34' W 122°44'0 0.0
2018-Jun-13 19:30N 45°34' W 122°44'0 0.0
2018-Jun-13 19:00N 45°34' W 122°44'0 0.0
2018-Jun-13 18:31N 45°34' W 122°44'0 0.0
2018-Jun-13 18:00N 45°34' W 122°44'0 0.0
2018-Jun-13 17:31N 45°34' W 122°44'0 0.0
2018-Jun-13 17:01N 45°34' W 122°44'0 0.0
2018-Jun-13 16:30N 45°34' W 122°44'0 0.0
2018-Jun-13 16:00N 45°34' W 122°44'0 0.0
2018-Jun-13 15:31N 45°34' W 122°44'0 0.0
2018-Jun-13 15:00N 45°34' W 122°44'0 0.0
2018-Jun-13 14:31N 45°34' W 122°44'0 0.0
2018-Jun-13 14:00N 45°34' W 122°44'0 0.0
2018-Jun-13 13:30N 45°34' W 122°44'0 0.6
2018-Jun-13 13:01N 45°34' W 122°44'4 7.0
2018-Jun-13 12:30N 45°37' W 122°47'0 0.2
2018-Jun-13 12:00N 45°37' W 122°47'0 0.1
2018-Jun-13 11:30N 45°36' W 122°47'1 1.6
2018-Jun-13 11:00N 45°37' W 122°47'0 0.2
2018-Jun-13 10:30N 45°37' W 122°47'1 2.7
2018-Jun-13 10:00N 45°38' W 122°46'0 0.0
2018-Jun-13 09:30N 45°38' W 122°46'0 0.0
2018-Jun-13 09:00N 45°38' W 122°46'0 0.0
2018-Jun-13 08:30N 45°38' W 122°46'0 0.0
2018-Jun-13 08:00N 45°38' W 122°46'0 0.0
2018-Jun-13 07:30N 45°38' W 122°46'0 0.0
2018-Jun-13 06:59N 45°38' W 122°46'0 0.0
2018-Jun-13 06:14N 45°38' W 122°46'0 0.0
2018-Jun-13 06:00N 45°38' W 122°46'1 2.3
2018-Jun-13 05:29N 45°39' W 122°45'1 2.5
2018-Jun-13 05:00N 45°39' W 122°46'2 3.0
2018-Jun-13 04:30N 45°37' W 122°47'2 2.4
2018-Jun-13 03:47N 45°36' W 122°47'0 0.1
2018-Jun-13 03:27N 45°36' W 122°47'2 5.2
2018-Jun-13 03:00N 45°34' W 122°44'0 0.4
2018-Jun-13 02:30N 45°34' W 122°44'1 1.8
2018-Jun-13 02:01N 45°35' W 122°45'4 7.9
2018-Jun-13 01:30N 45°39' W 122°47'4 7.4
2018-Jun-13 01:00N 45°42' W 122°46'4 7.8
2018-Jun-13 00:30N 45°46' W 122°46'4 7.8
2018-Jun-13 00:00N 45°50' W 122°48'4 7.4
2018-Jun-12 23:30N 45°54' W 122°48'4 7.8
2018-Jun-12 22:59N 45°58' W 122°49'4 8.1
2018-Jun-12 22:30N 46°01' W 122°52'4 7.9
2018-Jun-12 22:00N 46°05' W 122°54'3 5.3
2018-Jun-12 21:26N 46°06' W 122°57'0 0.0
2018-Jun-12 21:00N 46°06' W 122°57'0 0.5
2018-Jun-12 20:30N 46°06' W 122°57'1 2.5
2018-Jun-12 20:00N 46°05' W 122°56'0 0.0
2018-Jun-12 19:21N 46°05' W 122°56'0 0.0
2018-Jun-12 19:00N 46°05' W 122°56'0 0.0
2018-Jun-12 18:30N 46°05' W 122°56'0 0.0
2018-Jun-12 18:00N 46°05' W 122°56'1 1.0
2018-Jun-12 17:19N 46°05' W 122°55'0 1.3
2018-Jun-12 17:00N 46°05' W 122°54'4 6.4
2018-Jun-12 16:27N 46°02' W 122°53'0 0.2
2018-Jun-12 16:00N 46°02' W 122°53'0 0.0
2018-Jun-12 15:27N 46°02' W 122°53'0 0.0
2018-Jun-12 15:00N 46°02' W 122°53'0 0.0
2018-Jun-12 14:30N 46°02' W 122°53'0 0.0
2018-Jun-12 14:00N 46°02' W 122°53'0 0.0
2018-Jun-12 13:29N 46°02' W 122°53'0 0.0
2018-Jun-12 13:00N 46°02' W 122°53'0 0.0
2018-Jun-12 12:30N 46°02' W 122°53'0 0.0
2018-Jun-12 11:56N 46°02' W 122°53'0 0.1
2018-Jun-12 11:17N 46°02' W 122°53'0 0.0
2018-Jun-12 11:00N 46°02' W 122°53'0 0.1
2018-Jun-12 10:31N 46°02' W 122°53'0 0.4
2018-Jun-12 10:00N 46°02' W 122°52'0 0.2
2018-Jun-12 09:27N 46°02' W 122°52'0 0.0
2018-Jun-12 09:00N 46°02' W 122°52'4 7.1
2018-Jun-12 08:30N 45°59' W 122°50'4 8.2
2018-Jun-12 08:00N 45°55' W 122°49'4 8.8
2018-Jun-12 07:30N 45°50' W 122°47'6 8.9
2018-Jun-12 06:51N 45°45' W 122°46'3 9.2
2018-Jun-12 06:31N 45°41' W 122°46'3 5.4
2018-Jun-12 06:00N 45°39' W 122°45'2 4.5
2018-Jun-12 05:30N 45°38' W 122°42'0 0.8
2018-Jun-12 05:01N 45°38' W 122°42'0 0.1
2018-Jun-12 04:31N 45°38' W 122°42'1 2.8
2018-Jun-12 04:01N 45°39' W 122°44'1 1.4
2018-Jun-12 03:16N 45°38' W 122°43'1 3.4
2018-Jun-12 03:01N 45°38' W 122°42'0 0.1
2018-Jun-12 02:20N 45°38' W 122°42'0 0.0
2018-Jun-12 02:00N 45°38' W 122°42'0 0.0
2018-Jun-12 01:30N 45°38' W 122°42'1 2.6
2018-Jun-12 01:01N 45°38' W 122°43'2 3.3
2018-Jun-12 00:31N 45°39' W 122°46'1 1.8
2018-Jun-12 00:01N 45°39' W 122°46'1 2.2
2018-Jun-11 23:29N 45°39' W 122°45'0 0.0
2018-Jun-11 23:01N 45°39' W 122°45'0 0.0
2018-Jun-11 22:30N 45°39' W 122°45'0 0.0
2018-Jun-11 21:52N 45°39' W 122°45'0 0.0
2018-Jun-11 21:31N 45°39' W 122°45'0 0.0
2018-Jun-11 21:01N 45°39' W 122°45'0 0.0
2018-Jun-11 20:28N 45°39' W 122°45'0 0.0
2018-Jun-11 20:01N 45°39' W 122°45'0 0.0
2018-Jun-11 19:30N 45°39' W 122°45'0 0.0
2018-Jun-11 19:00N 45°39' W 122°45'0 0.0
2018-Jun-11 18:28N 45°39' W 122°45'0 0.0
2018-Jun-11 17:42N 45°39' W 122°45'0 0.0
2018-Jun-11 17:30N 45°39' W 122°45'0 0.0
2018-Jun-11 17:00N 45°39' W 122°45'2 4.1
2018-Jun-11 16:31N 45°38' W 122°47'0 0.2
2018-Jun-11 15:47N 45°38' W 122°47'0 0.3
2018-Jun-11 15:30N 45°38' W 122°47'0 0.5
2018-Jun-11 15:00N 45°38' W 122°47'1 1.5
2018-Jun-11 14:24N 45°39' W 122°47'0 0.5
2018-Jun-11 14:00N 45°38' W 122°47'3 5.2
2018-Jun-11 13:30N 45°36' W 122°46'1 1.3
2018-Jun-11 13:00N 45°36' W 122°47'1 0.5
2018-Jun-11 11:20N 45°37' W 122°47'0 0.0
2018-Jun-11 10:53N 45°37' W 122°47'0 0.0
2018-Jun-11 10:02N 45°37' W 122°47'0 0.0
2018-Jun-11 09:53N 45°37' W 122°47'0 0.0
2018-Jun-11 09:20N 45°37' W 122°47'0 0.0
2018-Jun-11 08:59N 45°37' W 122°47'1 2.7
2018-Jun-11 08:30N 45°38' W 122°47'3 6.9
2018-Jun-11 08:01N 45°42' W 122°46'3 6.7
2018-Jun-11 07:30N 45°45' W 122°46'3 6.6
2018-Jun-11 06:59N 45°48' W 122°47'3 6.4
2018-Jun-11 06:30N 45°51' W 122°47'3 6.3
2018-Jun-11 06:00N 45°54' W 122°49'4 6.1
2018-Jun-11 05:23N 45°58' W 122°50'2 6.3
2018-Jun-11 05:00N 46°00' W 122°51'1 1.6
2018-Jun-11 04:17N 45°59' W 122°51'0 1.1
2018-Jun-11 03:58N 45°59' W 122°50'0 0.0
2018-Jun-11 03:28N 45°59' W 122°50'2 3.6
2018-Jun-11 03:00N 46°00' W 122°51'3 6.3
2018-Jun-11 02:30N 46°03' W 122°53'3 5.6
2018-Jun-11 02:00N 46°05' W 122°56'0 0.0
2018-Jun-11 00:51N 46°05' W 122°56'0 0.0
2018-Jun-11 00:18N 46°05' W 122°56'0 0.0
2018-Jun-10 23:57N 46°05' W 122°56'0 0.0
2018-Jun-10 23:24N 46°05' W 122°56'0 0.0
2018-Jun-10 22:57N 46°05' W 122°56'0 0.0
2018-Jun-10 22:24N 46°05' W 122°56'1 3.5
2018-Jun-10 22:00N 46°06' W 122°57'0 0.2
2018-Jun-10 21:24N 46°06' W 122°57'2 4.4
2018-Jun-10 21:00N 46°05' W 122°55'1 1.4
2018-Jun-10 20:30N 46°05' W 122°54'1 1.5
2018-Jun-10 19:43N 46°05' W 122°56'0 0.0
2018-Jun-10 19:29N 46°05' W 122°56'0 0.0
2018-Jun-10 18:59N 46°05' W 122°56'0 0.0
2018-Jun-10 18:29N 46°05' W 122°56'0 0.0
2018-Jun-10 17:59N 46°05' W 122°56'0 0.0
2018-Jun-10 17:25N 46°05' W 122°56'0 0.0
2018-Jun-10 16:56N 46°05' W 122°56'0 0.0
2018-Jun-10 16:29N 46°05' W 122°56'0 0.0
2018-Jun-10 15:38N 46°05' W 122°56'0 0.0
2018-Jun-10 15:25N 46°05' W 122°56'0 0.7
2018-Jun-10 15:00N 46°05' W 122°55'0 0.1
2018-Jun-10 13:58N 46°05' W 122°55'0 0.0
2018-Jun-10 13:28N 46°05' W 122°55'0 0.0
2018-Jun-10 12:58N 46°05' W 122°55'0 0.0
2018-Jun-10 12:22N 46°05' W 122°55'0 0.0
2018-Jun-10 11:58N 46°05' W 122°55'0 0.0
2018-Jun-10 11:22N 46°05' W 122°55'0 0.0
2018-Jun-10 10:53N 46°05' W 122°55'1 3.4
2018-Jun-10 10:30N 46°06' W 122°57'0 1.0
2018-Jun-10 10:01N 46°06' W 122°57'0 0.1
2018-Jun-10 09:30N 46°06' W 122°57'1 2.8
2018-Jun-10 09:00N 46°05' W 122°56'0 0.0
2018-Jun-10 08:30N 46°05' W 122°56'0 0.8
2018-Jun-10 08:01N 46°05' W 122°55'0 0.0
2018-Jun-10 07:16N 46°05' W 122°55'0 0.0
2018-Jun-10 06:59N 46°05' W 122°55'0 0.0
2018-Jun-10 06:31N 46°05' W 122°55'0 0.0
2018-Jun-10 06:00N 46°05' W 122°55'0 0.0
2018-Jun-10 05:30N 46°05' W 122°55'0 0.0
2018-Jun-10 05:01N 46°05' W 122°55'0 0.0
2018-Jun-10 04:30N 46°05' W 122°55'0 0.0
2018-Jun-10 04:00N 46°05' W 122°55'0 0.0
2018-Jun-10 03:11N 46°05' W 122°55'0 0.0
2018-Jun-10 03:01N 46°05' W 122°55'0 0.0
2018-Jun-10 02:15N 46°05' W 122°55'0 0.0
2018-Jun-10 02:00N 46°05' W 122°55'2 3.6
2018-Jun-10 01:31N 46°04' W 122°53'6 5.3
2018-Jun-10 00:27N 45°59' W 122°50'0 0.1
2018-Jun-10 00:00N 45°59' W 122°50'2 3.2
2018-Jun-09 23:30N 45°58' W 122°49'2 3.4
2018-Jun-09 23:00N 45°59' W 122°50'0 0.0
2018-Jun-09 22:31N 45°59' W 122°50'0 0.4
2018-Jun-09 22:01N 45°59' W 122°50'0 0.1
2018-Jun-09 21:31N 45°59' W 122°50'0 0.0
2018-Jun-09 20:55N 45°59' W 122°50'0 0.0
2018-Jun-09 20:31N 45°59' W 122°50'0 0.0
2018-Jun-09 19:58N 45°59' W 122°50'0 0.0
2018-Jun-09 19:27N 45°59' W 122°50'0 0.0
2018-Jun-09 18:48N 45°59' W 122°50'0 0.3
2018-Jun-09 18:27N 45°59' W 122°50'0 0.3
2018-Jun-09 17:58N 45°59' W 122°50'3 6.5
2018-Jun-09 17:30N 46°02' W 122°52'3 6.5
2018-Jun-09 17:00N 46°05' W 122°54'2 3.6
2018-Jun-09 16:26N 46°06' W 122°56'0 1.1
2018-Jun-09 16:00N 46°06' W 122°57'0 0.4
2018-Jun-09 15:00N 46°06' W 122°56'0 0.0
2018-Jun-09 14:30N 46°06' W 122°56'0 0.0
2018-Jun-09 13:45N 46°06' W 122°56'0 0.0
2018-Jun-09 13:24N 46°06' W 122°56'0 0.0
2018-Jun-09 13:00N 46°06' W 122°56'2 3.9
2018-Jun-09 12:30N 46°05' W 122°54'4 8.9
2018-Jun-09 12:00N 46°01' W 122°51'  
Track history (hours):
 
Tides and Currents Weather Stations Pressure Air Temp Water Temp Dewpoint Dewpoint Depression Visibility Wind Speed Wind Dir Waves Ship Positions

Willamette

Owner: Shaver Transportation Company, Portland, OR. More information available from US FCC via Universal Licensing System and Coast Guard Vessel Documentation Center.

Last reported at 2018-Jun-19 12:00 UTC. Time now 2018-Jun-19 12:21 UTC.
Position N 45°38' W 122°44'.

Length 28 m; draft 4.3 m.

Type: Tug. MMSI: 367513230.

Date/timePositionNaut miles runAvg speedWind from/ knotsBaromVisibWave heightAir tempDewpointWater temp
2018-Jun-19 12:00N 45°38' W 122°44'0 0.0
2018-Jun-19 11:28N 45°38' W 122°44'0 0.0
2018-Jun-19 11:00N 45°38' W 122°44'0 0.0
2018-Jun-19 10:29N 45°38' W 122°44'0 0.0
2018-Jun-19 10:00N 45°38' W 122°44'0 0.0
2018-Jun-19 09:30N 45°38' W 122°44'0 0.0
2018-Jun-19 09:00N 45°38' W 122°44'0 0.0
2018-Jun-19 08:30N 45°38' W 122°44'0 0.0
2018-Jun-19 08:00N 45°38' W 122°44'0 0.1
2018-Jun-19 07:30N 45°38' W 122°44'1 2.3
2018-Jun-19 07:00N 45°39' W 122°45'1 1.9
2018-Jun-19 06:30N 45°38' W 122°46'2 3.4
2018-Jun-19 06:00N 45°37' W 122°47'0 0.2
2018-Jun-19 05:30N 45°37' W 122°47'3 5.4
2018-Jun-19 05:00N 45°39' W 122°44'1 2.1
2018-Jun-19 04:30N 45°38' W 122°43'1 2.7
2018-Jun-19 04:00N 45°39' W 122°45'1 1.4
2018-Jun-19 03:30N 45°39' W 122°45'0 0.5
2018-Jun-19 03:01N 45°39' W 122°46'1 1.7
2018-Jun-19 02:30N 45°39' W 122°46'1 1.6
2018-Jun-19 02:00N 45°39' W 122°45'0 0.2
2018-Jun-19 01:30N 45°39' W 122°45'0 0.0
2018-Jun-19 01:00N 45°39' W 122°45'0 0.1
2018-Jun-19 00:30N 45°39' W 122°46'0 0.0
2018-Jun-19 00:00N 45°39' W 122°46'0 0.0
2018-Jun-18 23:30N 45°39' W 122°46'0 0.0
2018-Jun-18 23:00N 45°39' W 122°46'0 0.0
2018-Jun-18 22:30N 45°39' W 122°46'0 0.0
2018-Jun-18 22:00N 45°39' W 122°46'3 6.1
2018-Jun-18 21:30N 45°42' W 122°46'4 7.3
2018-Jun-18 21:00N 45°46' W 122°46'4 7.2
2018-Jun-18 20:30N 45°49' W 122°48'3 6.9
2018-Jun-18 20:00N 45°52' W 122°47'3 6.7
2018-Jun-18 19:30N 45°56' W 122°48'3 6.7
2018-Jun-18 19:00N 45°59' W 122°50'1 1.3
2018-Jun-18 18:30N 45°59' W 122°51'3 5.0
2018-Jun-18 18:00N 46°02' W 122°52'2 3.0
2018-Jun-18 17:21N 46°04' W 122°53'2 6.5
2018-Jun-18 17:00N 46°05' W 122°55'0 0.8
2018-Jun-18 16:30N 46°05' W 122°56'4 8.9
2018-Jun-18 16:01N 46°02' W 122°52'0 0.4
2018-Jun-18 15:30N 46°02' W 122°52'0 0.1
2018-Jun-18 15:00N 46°02' W 122°52'0 0.0
2018-Jun-18 14:30N 46°02' W 122°52'3 6.5
2018-Jun-18 14:00N 46°05' W 122°54'2 4.5
2018-Jun-18 13:30N 46°06' W 122°57'1 1.1
2018-Jun-18 13:00N 46°06' W 122°57'1 1.7
2018-Jun-18 12:30N 46°07' W 122°58'1 1.0
2018-Jun-18 12:00N 46°06' W 122°58'0 0.1
2018-Jun-18 11:30N 46°06' W 122°58'0 0.1
2018-Jun-18 11:00N 46°06' W 122°58'0 0.1
2018-Jun-18 10:30N 46°06' W 122°58'510.0
2018-Jun-18 10:00N 46°03' W 122°53'0 0.3
2018-Jun-18 09:29N 46°03' W 122°53'0 0.0
2018-Jun-18 09:00N 46°03' W 122°53'1 2.2
2018-Jun-18 08:30N 46°04' W 122°53'2 3.3
2018-Jun-18 08:00N 46°05' W 122°54'1 1.3
2018-Jun-18 07:30N 46°05' W 122°55'1 1.6
2018-Jun-18 06:59N 46°06' W 122°56'0 0.3
2018-Jun-18 06:30N 46°06' W 122°56'1 1.6
2018-Jun-18 06:00N 46°06' W 122°58'1 1.5
2018-Jun-18 05:30N 46°06' W 122°56'0 0.1
2018-Jun-18 05:00N 46°06' W 122°56'0 0.0
2018-Jun-18 04:30N 46°06' W 122°56'0 0.0
2018-Jun-18 04:00N 46°06' W 122°56'4 7.2
2018-Jun-18 03:30N 46°03' W 122°53'5 9.2
2018-Jun-18 03:00N 45°59' W 122°50'0 0.3
2018-Jun-18 02:06N 45°59' W 122°50'0 0.0
2018-Jun-18 02:00N 45°59' W 122°50'0 0.0
2018-Jun-18 01:30N 45°59' W 122°50'0 0.0
2018-Jun-18 01:00N 45°59' W 122°50'0 0.1
2018-Jun-18 00:30N 45°59' W 122°50'0 0.3
2018-Jun-18 00:00N 45°59' W 122°50'0 0.1
2018-Jun-17 23:30N 45°59' W 122°50'0 0.1
2018-Jun-17 22:47N 45°59' W 122°50'0 0.0
2018-Jun-17 22:30N 45°59' W 122°50'0 0.0
2018-Jun-17 22:00N 45°59' W 122°50'1 2.0
2018-Jun-17 21:18N 45°58' W 122°49'411.5
2018-Jun-17 20:57N 45°54' W 122°48'610.4
2018-Jun-17 20:23N 45°48' W 122°47'410.6
2018-Jun-17 20:00N 45°44' W 122°46'510.1
2018-Jun-17 19:30N 45°39' W 122°45'1 2.5
2018-Jun-17 19:00N 45°38' W 122°44'0 0.0
2018-Jun-17 18:30N 45°38' W 122°44'0 0.0
2018-Jun-17 18:00N 45°38' W 122°44'0 0.0
2018-Jun-17 17:30N 45°38' W 122°44'0 0.0
2018-Jun-17 17:00N 45°38' W 122°44'0 0.0
2018-Jun-17 16:29N 45°38' W 122°44'0 0.0
2018-Jun-17 15:56N 45°38' W 122°44'0 0.0
2018-Jun-17 15:31N 45°38' W 122°44'0 0.0
2018-Jun-17 15:01N 45°38' W 122°44'0 0.8
2018-Jun-17 14:30N 45°38' W 122°44'1 1.6
2018-Jun-17 14:00N 45°39' W 122°45'1 2.3
2018-Jun-17 13:30N 45°38' W 122°47'0 0.1
2018-Jun-17 13:00N 45°38' W 122°47'1 1.5
2018-Jun-17 12:30N 45°39' W 122°46'0 0.3
2018-Jun-17 12:00N 45°39' W 122°46'1 1.3
2018-Jun-17 11:30N 45°38' W 122°47'2 4.7
2018-Jun-17 11:00N 45°36' W 122°47'3 6.2
2018-Jun-17 10:30N 45°34' W 122°44'0 0.0
2018-Jun-17 10:00N 45°34' W 122°44'0 0.0
2018-Jun-17 09:30N 45°34' W 122°44'0 0.0
2018-Jun-17 09:00N 45°34' W 122°44'0 0.2
2018-Jun-17 08:30N 45°34' W 122°44'0 0.1
2018-Jun-17 08:00N 45°34' W 122°44'0 0.0
2018-Jun-17 07:31N 45°34' W 122°44'0 0.0
2018-Jun-17 07:00N 45°34' W 122°44'3 5.7
2018-Jun-17 06:30N 45°36' W 122°47'4 7.3
2018-Jun-17 06:00N 45°39' W 122°46'1 1.9
2018-Jun-17 05:30N 45°39' W 122°45'0 0.0
2018-Jun-17 05:01N 45°39' W 122°45'0 0.0
2018-Jun-17 04:30N 45°39' W 122°45'0 0.0
2018-Jun-17 04:00N 45°39' W 122°45'1 1.7
2018-Jun-17 03:30N 45°38' W 122°44'0 0.1
2018-Jun-17 03:00N 45°38' W 122°44'0 0.1
2018-Jun-17 02:30N 45°38' W 122°44'0 0.0
2018-Jun-17 02:00N 45°38' W 122°44'0 0.1
2018-Jun-17 01:28N 45°38' W 122°44'1 1.3
2018-Jun-17 00:59N 45°39' W 122°44'3 5.3
2018-Jun-17 00:30N 45°37' W 122°47'1 2.9
2018-Jun-17 00:00N 45°36' W 122°47'3 5.5
2018-Jun-16 23:30N 45°39' W 122°47'1 2.4
2018-Jun-16 23:00N 45°39' W 122°45'0 0.0
2018-Jun-16 22:31N 45°39' W 122°45'0 0.0
2018-Jun-16 22:00N 45°39' W 122°45'0 0.0
2018-Jun-16 21:30N 45°39' W 122°45'0 0.0
2018-Jun-16 21:00N 45°39' W 122°45'0 0.0
2018-Jun-16 20:31N 45°39' W 122°45'0 0.0
2018-Jun-16 20:00N 45°39' W 122°45'0 0.0
2018-Jun-16 19:31N 45°39' W 122°45'0 0.0
2018-Jun-16 19:00N 45°39' W 122°45'3 6.2
2018-Jun-16 18:30N 45°41' W 122°46'3 6.9
2018-Jun-16 18:00N 45°45' W 122°46'3 6.8
2018-Jun-16 17:30N 45°48' W 122°47'3 6.5
2018-Jun-16 17:00N 45°51' W 122°47'3 6.5
2018-Jun-16 16:30N 45°55' W 122°48'3 6.5
2018-Jun-16 16:00N 45°58' W 122°49'3 5.1
2018-Jun-16 15:30N 45°60' W 122°51'4 7.2
2018-Jun-16 15:00N 46°03' W 122°53'3 7.0
2018-Jun-16 14:30N 46°06' W 122°56'0 0.1
2018-Jun-16 14:00N 46°06' W 122°56'3 5.1
2018-Jun-16 13:30N 46°04' W 122°53'5 9.4
2018-Jun-16 13:00N 45°60' W 122°51'0 0.3
2018-Jun-16 12:30N 45°60' W 122°51'0 0.1
2018-Jun-16 12:00N 45°60' W 122°51'2 4.7
2018-Jun-16 11:30N 46°02' W 122°53'4 8.2
2018-Jun-16 11:00N 46°06' W 122°56'4 8.8
2018-Jun-16 10:31N 46°08' W 123°01'4 8.7
2018-Jun-16 10:00N 46°11' W 123°06'4 8.1
2018-Jun-16 09:30N 46°11' W 123°12'4 8.6
2018-Jun-16 09:01N 46°09' W 123°18'4 8.5
2018-Jun-16 08:30N 46°09' W 123°24'4 7.9
2018-Jun-16 08:00N 46°13' W 123°25'4 8.2
2018-Jun-16 07:30N 46°16' W 123°29'5 8.8
2018-Jun-16 06:59N 46°15' W 123°35'4 8.6
2018-Jun-16 06:30N 46°15' W 123°41'5 9.2
2018-Jun-16 06:00N 46°13' W 123°47'4 8.5
2018-Jun-16 05:30N 46°11' W 123°53'2 5.0
2018-Jun-16 05:00N 46°12' W 123°56'3 6.2
2018-Jun-16 04:28N 46°12' W 123°51'3 5.1
2018-Jun-16 03:54N 46°13' W 123°48'1 1.5
2018-Jun-16 03:31N 46°13' W 123°47'1 1.0
2018-Jun-16 03:01N 46°12' W 123°47'1 2.2
2018-Jun-16 02:31N 46°13' W 123°46'6 9.6
2018-Jun-16 01:53N 46°16' W 123°38'4 9.6
2018-Jun-16 01:30N 46°16' W 123°33'4 8.0
2018-Jun-16 01:01N 46°15' W 123°27'4 8.3
2018-Jun-16 00:31N 46°11' W 123°26'4 8.0
2018-Jun-16 00:00N 46°09' W 123°21'4 8.1
2018-Jun-15 23:30N 46°09' W 123°16'4 8.5
2018-Jun-15 23:00N 46°11' W 123°10'4 8.7
2018-Jun-15 22:30N 46°10' W 123°05'5 9.9
2018-Jun-15 22:00N 46°07' W 122°59'5 9.9
2018-Jun-15 21:30N 46°04' W 122°53'510.0
2018-Jun-15 21:00N 45°59' W 122°51'5 9.6
2018-Jun-15 20:30N 45°55' W 122°49'5 9.6
2018-Jun-15 20:00N 45°50' W 122°48'5 9.4
2018-Jun-15 19:30N 45°45' W 122°46'5 9.7
2018-Jun-15 19:01N 45°40' W 122°46'4 7.0
2018-Jun-15 18:30N 45°37' W 122°47'3 7.0
2018-Jun-15 18:00N 45°34' W 122°44'1 2.5
2018-Jun-15 17:31N 45°33' W 122°43'0 0.0
2018-Jun-15 17:00N 45°33' W 122°43'1 1.1
2018-Jun-15 16:31N 45°34' W 122°44'0 0.0
2018-Jun-15 16:01N 45°34' W 122°44'0 0.0
2018-Jun-15 15:30N 45°34' W 122°44'0 0.0
2018-Jun-15 15:00N 45°34' W 122°44'0 0.0
2018-Jun-15 14:30N 45°34' W 122°44'0 0.0
2018-Jun-15 14:00N 45°34' W 122°44'0 0.0
2018-Jun-15 13:31N 45°34' W 122°44'0 0.0
2018-Jun-15 13:00N 45°34' W 122°44'3 6.1
2018-Jun-15 12:30N 45°36' W 122°47'3 4.7
2018-Jun-15 11:49N 45°39' W 122°45'1 4.4
2018-Jun-15 11:30N 45°38' W 122°43'0 0.3
2018-Jun-15 11:00N 45°38' W 122°43'1 2.7
2018-Jun-15 10:30N 45°39' W 122°45'0 0.0
2018-Jun-15 10:01N 45°39' W 122°45'0 0.0
2018-Jun-15 09:30N 45°39' W 122°45'2 3.6
2018-Jun-15 09:00N 45°38' W 122°42'0 0.3
2018-Jun-15 08:30N 45°38' W 122°42'2 3.2
2018-Jun-15 08:00N 45°39' W 122°45'0 0.2
2018-Jun-15 07:19N 45°39' W 122°45'1 3.1
2018-Jun-15 06:59N 45°39' W 122°46'0 0.8
2018-Jun-15 06:30N 45°38' W 122°46'0 0.0
2018-Jun-15 06:00N 45°38' W 122°46'0 0.0
2018-Jun-15 05:30N 45°38' W 122°46'0 0.1
2018-Jun-15 05:00N 45°38' W 122°46'1 1.8
2018-Jun-15 04:30N 45°39' W 122°45'2 4.9
2018-Jun-15 04:01N 45°37' W 122°47'3 6.3
2018-Jun-15 03:30N 45°34' W 122°44'1 1.6
2018-Jun-15 03:00N 45°34' W 122°44'0 0.0
2018-Jun-15 02:31N 45°34' W 122°44'0 0.0
2018-Jun-15 02:00N 45°34' W 122°44'0 0.0
2018-Jun-15 01:31N 45°34' W 122°44'0 0.0
2018-Jun-15 01:01N 45°34' W 122°44'2 4.0
2018-Jun-15 00:30N 45°33' W 122°41'1 1.5
2018-Jun-15 00:00N 45°32' W 122°40'1 2.1
2018-Jun-14 23:30N 45°33' W 122°42'1 2.4
2018-Jun-14 23:00N 45°33' W 122°43'1 1.3
2018-Jun-14 22:30N 45°34' W 122°44'0 0.0
2018-Jun-14 22:00N 45°34' W 122°44'0 0.0
2018-Jun-14 21:30N 45°34' W 122°44'0 0.1
2018-Jun-14 21:00N 45°34' W 122°44'0 0.3
2018-Jun-14 20:31N 45°34' W 122°44'0 0.0
2018-Jun-14 20:00N 45°34' W 122°44'0 0.8
2018-Jun-14 19:30N 45°34' W 122°44'2 3.8
2018-Jun-14 19:00N 45°35' W 122°45'3 7.0
2018-Jun-14 18:30N 45°38' W 122°47'2 4.5
2018-Jun-14 17:59N 45°38' W 122°44'3 5.4
2018-Jun-14 17:30N 45°38' W 122°47'4 8.3
2018-Jun-14 17:00N 45°34' W 122°44'1 1.5
2018-Jun-14 16:30N 45°34' W 122°44'0 0.0
2018-Jun-14 16:00N 45°34' W 122°44'0 0.0
2018-Jun-14 15:30N 45°34' W 122°44'0 0.0
2018-Jun-14 15:00N 45°34' W 122°44'0 0.0
2018-Jun-14 14:31N 45°34' W 122°44'0 0.0
2018-Jun-14 14:01N 45°34' W 122°44'2 4.4
2018-Jun-14 13:30N 45°35' W 122°46'3 6.2
2018-Jun-14 13:00N 45°38' W 122°47'1 2.6
2018-Jun-14 12:30N 45°39' W 122°45'2 3.2
2018-Jun-14 12:01N 45°38' W 122°43'0 0.1
2018-Jun-14 11:30N 45°38' W 122°43'1 2.2
2018-Jun-14 11:00N 45°39' W 122°45'0 0.5
2018-Jun-14 10:31N 45°39' W 122°45'4 7.8
2018-Jun-14 10:00N 45°42' W 122°46'4 8.0
2018-Jun-14 09:30N 45°46' W 122°46'4 7.7
2018-Jun-14 09:00N 45°50' W 122°47'4 7.4
2018-Jun-14 08:30N 45°54' W 122°48'4 7.5
2018-Jun-14 08:00N 45°58' W 122°49'4 7.6
2018-Jun-14 07:30N 46°01' W 122°52'2 3.8
2018-Jun-14 06:59N 46°03' W 122°53'0 0.0
2018-Jun-14 06:30N 46°03' W 122°53'0 0.2
2018-Jun-14 06:00N 46°03' W 122°53'0 0.1
2018-Jun-14 05:22N 46°03' W 122°53'0 1.4
2018-Jun-14 05:00N 46°02' W 122°53'1 1.6
2018-Jun-14 04:30N 46°02' W 122°52'0 0.0
2018-Jun-14 04:00N 46°02' W 122°52'6 8.5
2018-Jun-14 03:19N 45°56' W 122°48'310.5
2018-Jun-14 03:00N 45°53' W 122°48'510.1
2018-Jun-14 02:30N 45°48' W 122°47'510.0
2018-Jun-14 02:00N 45°43' W 122°46'5 9.3
2018-Jun-14 01:30N 45°39' W 122°45'2 3.7
2018-Jun-14 01:00N 45°38' W 122°47'4 7.9
2018-Jun-14 00:31N 45°34' W 122°44'1 1.9
2018-Jun-14 00:00N 45°34' W 122°43'0 0.3
2018-Jun-13 23:30N 45°34' W 122°44'0 0.2
2018-Jun-13 23:00N 45°34' W 122°44'0 0.0
2018-Jun-13 22:31N 45°34' W 122°44'0 0.0
2018-Jun-13 22:01N 45°34' W 122°44'0 0.0
2018-Jun-13 21:31N 45°34' W 122°44'0 0.0
2018-Jun-13 21:01N 45°34' W 122°44'0 0.0
2018-Jun-13 20:30N 45°34' W 122°44'0 0.0
2018-Jun-13 20:01N 45°34' W 122°44'0 0.0
2018-Jun-13 19:30N 45°34' W 122°44'0 0.0
2018-Jun-13 19:00N 45°34' W 122°44'0 0.0
2018-Jun-13 18:31N 45°34' W 122°44'0 0.0
2018-Jun-13 18:00N 45°34' W 122°44'0 0.0
2018-Jun-13 17:31N 45°34' W 122°44'0 0.0
2018-Jun-13 17:01N 45°34' W 122°44'0 0.0
2018-Jun-13 16:30N 45°34' W 122°44'0 0.0
2018-Jun-13 16:00N 45°34' W 122°44'0 0.0
2018-Jun-13 15:31N 45°34' W 122°44'0 0.0
2018-Jun-13 15:00N 45°34' W 122°44'0 0.0
2018-Jun-13 14:31N 45°34' W 122°44'0 0.0
2018-Jun-13 14:00N 45°34' W 122°44'0 0.0
2018-Jun-13 13:30N 45°34' W 122°44'0 0.6
2018-Jun-13 13:01N 45°34' W 122°44'4 7.0
2018-Jun-13 12:30N 45°37' W 122°47'0 0.2
2018-Jun-13 12:00N 45°37' W 122°47'0 0.1
2018-Jun-13 11:30N 45°36' W 122°47'1 1.6
2018-Jun-13 11:00N 45°37' W 122°47'0 0.2
2018-Jun-13 10:30N 45°37' W 122°47'1 2.7
2018-Jun-13 10:00N 45°38' W 122°46'0 0.0
2018-Jun-13 09:30N 45°38' W 122°46'0 0.0
2018-Jun-13 09:00N 45°38' W 122°46'0 0.0
2018-Jun-13 08:30N 45°38' W 122°46'0 0.0
2018-Jun-13 08:00N 45°38' W 122°46'0 0.0
2018-Jun-13 07:30N 45°38' W 122°46'0 0.0
2018-Jun-13 06:59N 45°38' W 122°46'0 0.0
2018-Jun-13 06:14N 45°38' W 122°46'0 0.0
2018-Jun-13 06:00N 45°38' W 122°46'1 2.3
2018-Jun-13 05:29N 45°39' W 122°45'1 2.5
2018-Jun-13 05:00N 45°39' W 122°46'2 3.0
2018-Jun-13 04:30N 45°37' W 122°47'2 2.4
2018-Jun-13 03:47N 45°36' W 122°47'0 0.1
2018-Jun-13 03:27N 45°36' W 122°47'2 5.2
2018-Jun-13 03:00N 45°34' W 122°44'0 0.4
2018-Jun-13 02:30N 45°34' W 122°44'1 1.8
2018-Jun-13 02:01N 45°35' W 122°45'4 7.9
2018-Jun-13 01:30N 45°39' W 122°47'4 7.4
2018-Jun-13 01:00N 45°42' W 122°46'4 7.8
2018-Jun-13 00:30N 45°46' W 122°46'4 7.8
2018-Jun-13 00:00N 45°50' W 122°48'4 7.4
2018-Jun-12 23:30N 45°54' W 122°48'4 7.8
2018-Jun-12 22:59N 45°58' W 122°49'4 8.1
2018-Jun-12 22:30N 46°01' W 122°52'4 7.9
2018-Jun-12 22:00N 46°05' W 122°54'3 5.3
2018-Jun-12 21:26N 46°06' W 122°57'0 0.0
2018-Jun-12 21:00N 46°06' W 122°57'0 0.5
2018-Jun-12 20:30N 46°06' W 122°57'1 2.5
2018-Jun-12 20:00N 46°05' W 122°56'0 0.0
2018-Jun-12 19:21N 46°05' W 122°56'0 0.0
2018-Jun-12 19:00N 46°05' W 122°56'0 0.0
2018-Jun-12 18:30N 46°05' W 122°56'0 0.0
2018-Jun-12 18:00N 46°05' W 122°56'1 1.0
2018-Jun-12 17:19N 46°05' W 122°55'0 1.3
2018-Jun-12 17:00N 46°05' W 122°54'4 6.4
2018-Jun-12 16:27N 46°02' W 122°53'0 0.2
2018-Jun-12 16:00N 46°02' W 122°53'0 0.0
2018-Jun-12 15:27N 46°02' W 122°53'0 0.0
2018-Jun-12 15:00N 46°02' W 122°53'0 0.0
2018-Jun-12 14:30N 46°02' W 122°53'0 0.0
2018-Jun-12 14:00N 46°02' W 122°53'0 0.0
2018-Jun-12 13:29N 46°02' W 122°53'0 0.0
2018-Jun-12 13:00N 46°02' W 122°53'0 0.0
2018-Jun-12 12:30N 46°02' W 122°53'0 0.0
2018-Jun-12 11:56N 46°02' W 122°53'0 0.1
2018-Jun-12 11:17N 46°02' W 122°53'0 0.0
2018-Jun-12 11:00N 46°02' W 122°53'0 0.1
2018-Jun-12 10:31N 46°02' W 122°53'0 0.4
2018-Jun-12 10:00N 46°02' W 122°52'0 0.2
2018-Jun-12 09:27N 46°02' W 122°52'0 0.0
2018-Jun-12 09:00N 46°02' W 122°52'4 7.1
2018-Jun-12 08:30N 45°59' W 122°50'4 8.2
2018-Jun-12 08:00N 45°55' W 122°49'4 8.8
2018-Jun-12 07:30N 45°50' W 122°47'6 8.9
2018-Jun-12 06:51N 45°45' W 122°46'3 9.2
2018-Jun-12 06:31N 45°41' W 122°46'3 5.4
2018-Jun-12 06:00N 45°39' W 122°45'2 4.5
2018-Jun-12 05:30N 45°38' W 122°42'0 0.8
2018-Jun-12 05:01N 45°38' W 122°42'0 0.1
2018-Jun-12 04:31N 45°38' W 122°42'1 2.8
2018-Jun-12 04:01N 45°39' W 122°44'1 1.4
2018-Jun-12 03:16N 45°38' W 122°43'1 3.4
2018-Jun-12 03:01N 45°38' W 122°42'0 0.1
2018-Jun-12 02:20N 45°38' W 122°42'0 0.0
2018-Jun-12 02:00N 45°38' W 122°42'0 0.0
2018-Jun-12 01:30N 45°38' W 122°42'1 2.6
2018-Jun-12 01:01N 45°38' W 122°43'2 3.3
2018-Jun-12 00:31N 45°39' W 122°46'1 1.8
2018-Jun-12 00:01N 45°39' W 122°46'1 2.2
2018-Jun-11 23:29N 45°39' W 122°45'0 0.0
2018-Jun-11 23:01N 45°39' W 122°45'0 0.0
2018-Jun-11 22:30N 45°39' W 122°45'0 0.0
2018-Jun-11 21:52N 45°39' W 122°45'0 0.0
2018-Jun-11 21:31N 45°39' W 122°45'0 0.0
2018-Jun-11 21:01N 45°39' W 122°45'0 0.0
2018-Jun-11 20:28N 45°39' W 122°45'0 0.0
2018-Jun-11 20:01N 45°39' W 122°45'0 0.0
2018-Jun-11 19:30N 45°39' W 122°45'0 0.0
2018-Jun-11 19:00N 45°39' W 122°45'0 0.0
2018-Jun-11 18:28N 45°39' W 122°45'0 0.0
2018-Jun-11 17:42N 45°39' W 122°45'0 0.0
2018-Jun-11 17:30N 45°39' W 122°45'0 0.0
2018-Jun-11 17:00N 45°39' W 122°45'2 4.1
2018-Jun-11 16:31N 45°38' W 122°47'0 0.2
2018-Jun-11 15:47N 45°38' W 122°47'0 0.3
2018-Jun-11 15:30N 45°38' W 122°47'0 0.5
2018-Jun-11 15:00N 45°38' W 122°47'1 1.5
2018-Jun-11 14:24N 45°39' W 122°47'0 0.5
2018-Jun-11 14:00N 45°38' W 122°47'3 5.2
2018-Jun-11 13:30N 45°36' W 122°46'1 1.3
2018-Jun-11 13:00N 45°36' W 122°47'1 0.5
2018-Jun-11 11:20N 45°37' W 122°47'0 0.0
2018-Jun-11 10:53N 45°37' W 122°47'0 0.0
2018-Jun-11 10:02N 45°37' W 122°47'0 0.0
2018-Jun-11 09:53N 45°37' W 122°47'0 0.0
2018-Jun-11 09:20N 45°37' W 122°47'0 0.0
2018-Jun-11 08:59N 45°37' W 122°47'1 2.7
2018-Jun-11 08:30N 45°38' W 122°47'3 6.9
2018-Jun-11 08:01N 45°42' W 122°46'3 6.7
2018-Jun-11 07:30N 45°45' W 122°46'3 6.6
2018-Jun-11 06:59N 45°48' W 122°47'3 6.4
2018-Jun-11 06:30N 45°51' W 122°47'3 6.3
2018-Jun-11 06:00N 45°54' W 122°49'4 6.1
2018-Jun-11 05:23N 45°58' W 122°50'2 6.3
2018-Jun-11 05:00N 46°00' W 122°51'1 1.6
2018-Jun-11 04:17N 45°59' W 122°51'0 1.1
2018-Jun-11 03:58N 45°59' W 122°50'0 0.0
2018-Jun-11 03:28N 45°59' W 122°50'2 3.6
2018-Jun-11 03:00N 46°00' W 122°51'3 6.3
2018-Jun-11 02:30N 46°03' W 122°53'3 5.6
2018-Jun-11 02:00N 46°05' W 122°56'0 0.0
2018-Jun-11 00:51N 46°05' W 122°56'0 0.0
2018-Jun-11 00:18N 46°05' W 122°56'0 0.0
2018-Jun-10 23:57N 46°05' W 122°56'0 0.0
2018-Jun-10 23:24N 46°05' W 122°56'0 0.0
2018-Jun-10 22:57N 46°05' W 122°56'0 0.0
2018-Jun-10 22:24N 46°05' W 122°56'1 3.5
2018-Jun-10 22:00N 46°06' W 122°57'0 0.2
2018-Jun-10 21:24N 46°06' W 122°57'2 4.4
2018-Jun-10 21:00N 46°05' W 122°55'1 1.4
2018-Jun-10 20:30N 46°05' W 122°54'1 1.5
2018-Jun-10 19:43N 46°05' W 122°56'0 0.0
2018-Jun-10 19:29N 46°05' W 122°56'0 0.0
2018-Jun-10 18:59N 46°05' W 122°56'0 0.0
2018-Jun-10 18:29N 46°05' W 122°56'0 0.0
2018-Jun-10 17:59N 46°05' W 122°56'0 0.0
2018-Jun-10 17:25N 46°05' W 122°56'0 0.0
2018-Jun-10 16:56N 46°05' W 122°56'0 0.0
2018-Jun-10 16:29N 46°05' W 122°56'0 0.0
2018-Jun-10 15:38N 46°05' W 122°56'0 0.0
2018-Jun-10 15:25N 46°05' W 122°56'0 0.7
2018-Jun-10 15:00N 46°05' W 122°55'0 0.1
2018-Jun-10 13:58N 46°05' W 122°55'0 0.0
2018-Jun-10 13:28N 46°05' W 122°55'0 0.0
2018-Jun-10 12:58N 46°05' W 122°55'0 0.0
2018-Jun-10 12:22N 46°05' W 122°55'0 0.0
2018-Jun-10 11:58N 46°05' W 122°55'0 0.0
2018-Jun-10 11:22N 46°05' W 122°55'0 0.0
2018-Jun-10 10:53N 46°05' W 122°55'1 3.4
2018-Jun-10 10:30N 46°06' W 122°57'0 1.0
2018-Jun-10 10:01N 46°06' W 122°57'0 0.1
2018-Jun-10 09:30N 46°06' W 122°57'1 2.8
2018-Jun-10 09:00N 46°05' W 122°56'0 0.0
2018-Jun-10 08:30N 46°05' W 122°56'0 0.8
2018-Jun-10 08:01N 46°05' W 122°55'0 0.0
2018-Jun-10 07:16N 46°05' W 122°55'0 0.0
2018-Jun-10 06:59N 46°05' W 122°55'0 0.0
2018-Jun-10 06:31N 46°05' W 122°55'0 0.0
2018-Jun-10 06:00N 46°05' W 122°55'0 0.0
2018-Jun-10 05:30N 46°05' W 122°55'0 0.0
2018-Jun-10 05:01N 46°05' W 122°55'0 0.0
2018-Jun-10 04:30N 46°05' W 122°55'0 0.0
2018-Jun-10 04:00N 46°05' W 122°55'0 0.0
2018-Jun-10 03:11N 46°05' W 122°55'0 0.0
2018-Jun-10 03:01N 46°05' W 122°55'0 0.0
2018-Jun-10 02:15N 46°05' W 122°55'0 0.0
2018-Jun-10 02:00N 46°05' W 122°55'2 3.6
2018-Jun-10 01:31N 46°04' W 122°53'6 5.3
2018-Jun-10 00:27N 45°59' W 122°50'0 0.1
2018-Jun-10 00:00N 45°59' W 122°50'2 3.2
2018-Jun-09 23:30N 45°58' W 122°49'2 3.4
2018-Jun-09 23:00N 45°59' W 122°50'0 0.0
2018-Jun-09 22:31N 45°59' W 122°50'0 0.4
2018-Jun-09 22:01N 45°59' W 122°50'0 0.1
2018-Jun-09 21:31N 45°59' W 122°50'0 0.0
2018-Jun-09 20:55N 45°59' W 122°50'0 0.0
2018-Jun-09 20:31N 45°59' W 122°50'0 0.0
2018-Jun-09 19:58N 45°59' W 122°50'0 0.0
2018-Jun-09 19:27N 45°59' W 122°50'0 0.0
2018-Jun-09 18:48N 45°59' W 122°50'0 0.3
2018-Jun-09 18:27N 45°59' W 122°50'0 0.3
2018-Jun-09 17:58N 45°59' W 122°50'3 6.5
2018-Jun-09 17:30N 46°02' W 122°52'3 6.5
2018-Jun-09 17:00N 46°05' W 122°54'2 3.6
2018-Jun-09 16:26N 46°06' W 122°56'0 1.1
2018-Jun-09 16:00N 46°06' W 122°57'0 0.4
2018-Jun-09 15:00N 46°06' W 122°56'0 0.0
2018-Jun-09 14:30N 46°06' W 122°56'0 0.0
2018-Jun-09 13:45N 46°06' W 122°56'0 0.0
2018-Jun-09 13:24N 46°06' W 122°56'0 0.0
2018-Jun-09 13:00N 46°06' W 122°56'2 3.9
2018-Jun-09 12:30N 46°05' W 122°54'4 8.9
2018-Jun-09 12:00N 46°01' W 122°51'  

Dump ship's entire track history